Time;durP1;ratioP1;P1;durP2;ratioP2;P2;SDS_P1;SDS_P2;PMS_P1;PMS_P2;Temp;Humidity;BMP_temperature;BMP_pressure;BME280_temperature;BME280_humidity;BME280_pressure;Samples;Min_cycle;Max_cycle;Signal;HPM_P1;HPM_P2
2023/05/21 00:01:58;;;;;;;17.88;14.32;;;16.30;1.60;;;;;;7370995;19;20010;-68
2023/05/21 00:04:32;;;;;;;19.27;15.25;;;16.30;2.10;;;;;;7370504;19;20351;-68
2023/05/21 00:07:02;;;;;;;16.65;14.55;;;16.30;2.40;;;;;;7373013;19;20018;-68
2023/05/21 00:09:32;;;;;;;20.75;14.88;;;16.20;2.70;;;;;;7371114;19;20038;-68
2023/05/21 00:12:02;;;;;;;19.83;15.82;;;16.20;3.40;;;;;;7371298;19;20011;-68
2023/05/21 00:14:32;;;;;;;18.67;15.45;;;16.20;3.50;;;;;;7393777;19;20039;-68
2023/05/21 00:17:02;;;;;;;20.88;16.08;;;16.20;3.70;;;;;;7373451;19;20018;-68
2023/05/21 00:19:35;;;;;;;21.27;15.93;;;16.10;4.50;;;;;;7370431;19;20018;-68
2023/05/21 00:22:05;;;;;;;20.27;15.73;;;16.10;4.40;;;;;;7372230;19;20018;-68
2023/05/21 00:24:35;;;;;;;20.42;15.40;;;16.10;5.20;;;;;;7369915;19;20019;-68
2023/05/21 00:27:05;;;;;;;19.88;16.05;;;16.00;5.40;;;;;;7371113;19;20088;-68
2023/05/21 00:29:35;;;;;;;25.70;16.38;;;16.00;5.60;;;;;;7391199;19;20043;-68
2023/05/21 00:32:06;;;;;;;20.42;15.75;;;16.00;5.80;;;;;;7372619;19;20014;-67
2023/05/21 00:34:39;;;;;;;20.85;15.93;;;16.00;6.50;;;;;;7371127;19;20038;-69
2023/05/21 00:37:09;;;;;;;19.95;16.13;;;15.90;6.20;;;;;;7369934;19;20010;-69
2023/05/21 00:39:39;;;;;;;21.35;16.15;;;15.90;6.80;;;;;;7369779;19;20051;-69
2023/05/21 00:42:09;;;;;;;20.05;15.82;;;15.90;7.40;;;;;;7371147;19;20027;-67
2023/05/21 00:44:39;;;;;;;21.27;16.50;;;15.80;7.80;;;;;;7391801;19;20018;-67
2023/05/21 00:47:09;;;;;;;22.00;16.92;;;15.80;8.00;;;;;;7372075;19;20014;-69
2023/05/21 00:49:41;;;;;;;22.88;17.08;;;15.80;8.40;;;;;;7369533;19;20030;-67
2023/05/21 00:52:11;;;;;;;24.83;17.00;;;15.80;8.80;;;;;;7374244;19;20478;-68
2023/05/21 00:54:41;;;;;;;22.77;17.60;;;15.70;9.10;;;;;;7371950;19;20015;-68
2023/05/21 00:57:12;;;;;;;24.88;17.95;;;15.80;9.30;;;;;;7368957;19;20024;-67
2023/05/21 00:59:42;;;;;;;22.02;17.95;;;15.70;9.40;;;;;;7387590;19;20035;-67
2023/05/21 01:02:13;;;;;;;24.70;17.48;;;15.70;9.50;;;;;;7368524;19;20010;-67
2023/05/21 01:04:46;;;;;;;23.38;17.27;;;15.70;9.70;;;;;;7366734;19;20461;-66
2023/05/21 01:07:17;;;;;;;26.55;17.25;;;15.70;10.30;;;;;;7368068;19;20030;-67
2023/05/21 01:09:47;;;;;;;22.50;16.92;;;15.60;11.30;;;;;;7368153;19;20094;-68
2023/05/21 01:12:19;;;;;;;20.98;17.05;;;15.60;11.70;;;;;;7369980;19;20034;-67
2023/05/21 01:14:51;;;;;;;22.65;17.13;;;15.60;12.10;;;;;;7390231;19;20007;-67
2023/05/21 01:17:23;;;;;;;23.48;18.65;;;15.50;12.30;;;;;;7370177;19;20014;-67
2023/05/21 01:19:56;;;;;;;22.45;17.30;;;15.50;12.70;;;;;;7367116;19;20035;-67
2023/05/21 01:22:27;;;;;;;24.85;18.15;;;15.50;12.80;;;;;;7369780;19;20014;-67
2023/05/21 01:25:01;;;;;;;25.85;19.33;;;15.50;13.20;;;;;;7370072;19;20014;-67
2023/05/21 01:27:31;;;;;;;22.55;17.98;;;15.50;13.80;;;;;;7366314;19;20024;-67
2023/05/21 01:30:01;;;;;;;25.42;18.85;;;15.40;13.60;;;;;;7363969;19;20068;-67
2023/05/21 01:32:36;;;;;;;21.58;17.23;;;15.50;14.60;;;;;;7389325;19;20020;-67
2023/05/21 01:35:10;;;;;;;23.08;18.40;;;15.40;14.40;;;;;;7365602;19;20010;-67
2023/05/21 01:37:46;;;;;;;23.33;17.87;;;15.40;14.80;;;;;;7368059;19;20037;-67
2023/05/21 01:40:25;;;;;;;24.88;18.35;;;15.40;15.10;;;;;;7364320;19;20007;-67
2023/05/21 01:42:55;;;;;;;26.30;18.83;;;15.30;15.10;;;;;;7367344;19;20030;-67
2023/05/21 01:45:26;;;;;;;22.10;17.95;;;15.30;15.80;;;;;;7364756;19;20014;-67
2023/05/21 01:47:57;;;;;;;28.10;19.60;;;15.30;15.90;;;;;;7388771;19;20011;-67
2023/05/21 01:50:28;;;;;;;26.48;18.48;;;15.20;16.60;;;;;;7363445;19;20346;-67
2023/05/21 01:52:59;;;;;;;24.55;18.85;;;15.20;16.90;;;;;;7367353;19;20015;-68
2023/05/21 01:55:32;;;;;;;29.83;18.98;;;15.20;17.10;;;;;;7367172;19;20066;-67
2023/05/21 01:58:03;;;;;;;25.10;18.98;;;15.20;17.50;;;;;;7368835;19;20006;-66
2023/05/21 02:00:33;;;;;;;25.27;17.50;;;15.20;18.10;;;;;;7363096;19;20014;-66
2023/05/21 02:03:03;;;;;;;25.95;17.95;;;15.20;18.20;;;;;;7366625;19;20034;-67
2023/05/21 02:05:33;;;;;;;24.80;18.75;;;15.10;18.10;;;;;;7388613;19;20007;-67
2023/05/21 02:08:04;;;;;;;26.58;19.60;;;15.20;17.90;;;;;;7367895;19;20494;-67
2023/05/21 02:10:37;;;;;;;24.20;18.83;;;15.20;18.10;;;;;;7369661;19;20381;-67
2023/05/21 02:13:07;;;;;;;25.90;18.77;;;15.10;18.40;;;;;;7375287;19;20006;-67
2023/05/21 02:15:37;;;;;;;24.45;19.08;;;15.10;18.90;;;;;;7371904;19;20027;-67
2023/05/21 02:18:08;;;;;;;24.02;18.02;;;15.00;19.50;;;;;;7375162;19;20010;-65
2023/05/21 02:20:38;;;;;;;28.48;19.88;;;15.00;19.80;;;;;;7391156;19;20371;-66
2023/05/21 02:23:08;;;;;;;24.17;18.48;;;15.10;19.50;;;;;;7375072;19;20463;-67
2023/05/21 02:25:40;;;;;;;26.13;19.92;;;15.10;19.50;;;;;;7371081;19;20554;-66
2023/05/21 02:28:11;;;;;;;29.10;19.15;;;15.00;19.50;;;;;;7373871;19;20018;-67
2023/05/21 02:30:41;;;;;;;26.20;18.95;;;15.00;20.20;;;;;;7369930;19;20074;-67
2023/05/21 02:33:13;;;;;;;23.42;19.20;;;15.00;20.20;;;;;;7383038;19;20031;-67
2023/05/21 02:35:43;;;;;;;25.13;19.17;;;15.00;20.00;;;;;;7407263;19;20018;-67
2023/05/21 02:38:13;;;;;;;25.98;18.83;;;14.90;20.40;;;;;;7384537;19;20328;-65
2023/05/21 02:40:45;;;;;;;23.83;18.65;;;14.90;21.10;;;;;;7372665;19;20032;-67
2023/05/21 02:43:15;;;;;;;23.50;19.45;;;14.90;20.90;;;;;;7375490;19;20010;-67
2023/05/21 02:45:45;;;;;;;25.35;19.13;;;14.90;21.40;;;;;;7373620;19;20023;-67
2023/05/21 02:48:15;;;;;;;26.25;19.50;;;14.80;21.80;;;;;;7377468;19;20021;-67
2023/05/21 02:50:45;;;;;;;28.13;19.80;;;14.80;21.90;;;;;;7392445;19;20010;-67
2023/05/21 02:53:15;;;;;;;23.83;18.77;;;14.80;22.30;;;;;;7376466;19;20436;-67
2023/05/21 02:55:48;;;;;;;26.85;20.08;;;14.80;22.20;;;;;;7371124;19;20014;-68
2023/05/21 02:58:18;;;;;;;25.98;19.00;;;14.80;21.90;;;;;;7372722;19;20018;-67
2023/05/21 03:00:48;;;;;;;23.17;19.05;;;14.80;21.90;;;;;;7370394;19;20018;-68
2023/05/21 03:03:18;;;;;;;26.80;19.55;;;14.70;22.20;;;;;;7374753;19;20015;-67
2023/05/21 03:05:49;;;;;;;26.02;18.70;;;14.80;22.30;;;;;;7393303;19;20011;-67
2023/05/21 03:08:19;;;;;;;24.50;19.48;;;14.70;22.90;;;;;;7373289;19;20003;-67
2023/05/21 03:10:51;;;;;;;25.35;19.83;;;14.70;23.60;;;;;;7371467;19;20106;-67
2023/05/21 03:13:21;;;;;;;22.70;18.20;;;14.70;23.80;;;;;;7371721;19;20538;-67
2023/05/21 03:15:54;;;;;;;26.67;19.25;;;14.70;24.10;;;;;;7373083;19;20019;-68
2023/05/21 03:18:24;;;;;;;27.70;20.05;;;14.70;23.70;;;;;;7371879;19;20006;-68
2023/05/21 03:20:57;;;;;;;25.58;19.70;;;14.60;23.90;;;;;;7389615;19;20018;-67
2023/05/21 03:23:28;;;;;;;27.02;19.38;;;14.60;24.40;;;;;;7370913;19;20082;-67
2023/05/21 03:26:01;;;;;;;26.48;19.60;;;14.60;24.60;;;;;;7372713;19;20047;-67
2023/05/21 03:28:31;;;;;;;25.58;18.45;;;14.60;24.70;;;;;;7372836;19;20003;-67
2023/05/21 03:31:01;;;;;;;25.00;19.98;;;14.60;25.20;;;;;;7370987;19;20018;-66
2023/05/21 03:33:31;;;;;;;29.52;20.25;;;14.50;25.20;;;;;;7371303;19;20011;-68
2023/05/21 03:36:01;;;;;;;29.55;20.52;;;14.50;26.00;;;;;;7389441;19;20074;-67
2023/05/21 03:38:30;;;;;;;26.25;20.08;;;14.50;26.00;;;;;;7394321;19;20014;-67
2023/05/21 03:41:03;;;;;;;27.65;21.08;;;14.50;25.70;;;;;;7369973;19;20015;-67
2023/05/21 03:43:33;;;;;;;27.63;20.00;;;14.40;25.80;;;;;;7371281;19;20474;-67
2023/05/21 03:46:03;;;;;;;29.90;20.48;;;14.40;25.80;;;;;;7372439;19;20014;-67
2023/05/21 03:48:33;;;;;;;26.88;20.48;;;14.40;26.20;;;;;;7372632;19;20031;-67
2023/05/21 03:51:03;;;;;;;26.48;19.52;;;14.40;26.40;;;;;;7368547;19;20022;-68
2023/05/21 03:53:35;;;;;;;27.88;19.73;;;14.40;26.40;;;;;;7391312;19;20035;-67
2023/05/21 03:56:08;;;;;;;25.77;20.13;;;14.40;26.50;;;;;;7371553;19;20018;-67
2023/05/21 03:58:38;;;;;;;25.05;20.08;;;14.40;26.70;;;;;;7370116;19;20035;-67
2023/05/21 04:01:09;;;;;;;28.70;20.73;;;14.40;26.80;;;;;;7370919;19;20002;-67
2023/05/21 04:03:39;;;;;;;26.33;20.17;;;14.30;27.10;;;;;;7370048;19;20015;-67
2023/05/21 04:06:11;;;;;;;28.90;20.05;;;14.40;27.30;;;;;;7369277;19;20496;-67
2023/05/21 04:08:41;;;;;;;26.73;20.58;;;14.30;27.90;;;;;;7391254;19;20031;-67
2023/05/21 04:11:13;;;;;;;26.63;19.92;;;14.30;28.00;;;;;;7368684;19;20006;-68
2023/05/21 04:13:43;;;;;;;25.83;19.70;;;14.30;27.90;;;;;;7368350;19;20038;-67
2023/05/21 04:16:17;;;;;;;28.15;20.02;;;14.30;28.30;;;;;;7369623;19;20029;-64
2023/05/21 04:18:48;;;;;;;;;;;14.40;27.50;;;;;;7369692;19;20014;-67
2023/05/21 04:21:18;;;;;;;27.77;19.90;;;14.40;27.80;;;;;;7366866;19;20395;-67
2023/05/21 04:23:48;;;;;;;23.63;18.83;;;14.40;27.80;;;;;;7390599;19;20019;-67
2023/05/21 04:26:21;;;;;;;24.25;18.52;;;14.40;27.90;;;;;;7368039;19;20007;-67
2023/05/21 04:29:01;;;;;;;27.52;20.30;;;14.40;27.70;;;;;;7367605;19;20074;-66
2023/05/21 04:31:32;;;;;;;28.52;20.77;;;14.50;27.50;;;;;;7368906;19;20375;-66
2023/05/21 04:34:02;;;;;;;25.08;19.63;;;14.50;26.40;;;;;;7366727;19;20007;-66
2023/05/21 04:36:32;;;;;;;24.67;19.58;;;14.50;26.80;;;;;;7369212;19;20040;-66
2023/05/21 04:39:04;;;;;;;25.80;19.40;;;14.40;26.00;;;;;;7368645;19;20014;-66
2023/05/21 04:41:37;;;;;;;26.05;20.00;;;14.40;27.00;;;;;;7389180;19;20545;-66
2023/05/21 04:44:08;;;;;;;26.50;19.30;;;14.50;27.20;;;;;;7368098;19;20018;-66
2023/05/21 04:46:39;;;;;;;26.58;19.15;;;14.50;26.60;;;;;;7365777;19;20007;-66
2023/05/21 04:49:11;;;;;;;27.27;19.67;;;14.50;26.30;;;;;;7367201;19;20015;-66
2023/05/21 04:51:41;;;;;;;31.88;20.98;;;14.60;26.50;;;;;;7366024;19;20036;-66
2023/05/21 04:54:11;;;;;;;26.45;19.23;;;14.60;26.10;;;;;;7368741;19;20011;-66
2023/05/21 04:56:46;;;;;;;24.63;19.23;;;14.50;25.80;;;;;;7388416;19;20362;-66
2023/05/21 04:59:17;;;;;;;25.13;18.85;;;14.70;25.20;;;;;;7366563;19;20016;-66
2023/05/21 05:01:47;;;;;;;24.42;19.25;;;14.70;25.40;;;;;;7366764;19;20470;-67
2023/05/21 05:04:17;;;;;;;24.23;18.55;;;14.70;24.70;;;;;;7368013;19;20007;-66
2023/05/21 05:06:47;;;;;;;23.73;19.10;;;14.80;25.30;;;;;;7366712;19;20023;-66
2023/05/21 05:09:17;;;;;;;30.73;18.80;;;14.80;24.00;;;;;;7367009;19;20048;-66
2023/05/21 05:11:49;;;;;;;24.42;18.20;;;14.80;24.00;;;;;;7390294;19;20049;-66
2023/05/21 05:14:19;;;;;;;25.98;18.50;;;14.70;23.70;;;;;;7366854;19;20533;-66
2023/05/21 05:16:49;;;;;;;24.00;18.58;;;14.70;24.90;;;;;;7366561;19;20006;-66
2023/05/21 05:19:19;;;;;;;25.15;19.45;;;14.90;24.60;;;;;;7366340;19;20085;-66
2023/05/21 05:21:49;;;;;;;26.75;18.73;;;15.00;22.00;;;;;;7367135;19;20105;-66
2023/05/21 05:24:19;;;;;;;23.27;18.85;;;15.00;22.00;;;;;;7367787;19;20035;-66
2023/05/21 05:26:52;;;;;;;23.95;18.85;;;15.20;22.10;;;;;;7388465;19;20109;-66
2023/05/21 05:29:22;;;;;;;24.55;18.50;;;15.20;19.50;;;;;;7364662;19;20015;-67
2023/05/21 05:31:51;;;;;;;23.80;18.23;;;15.10;20.50;;;;;;7368055;19;20010;-66
2023/05/21 05:34:21;;;;;;;23.30;17.88;;;15.30;20.00;;;;;;7366558;19;20014;-66
2023/05/21 05:36:51;;;;;;;21.58;17.80;;;15.40;18.70;;;;;;7366169;19;20081;-66
2023/05/21 05:39:21;;;;;;;24.00;18.65;;;15.40;16.60;;;;;;7365497;19;20494;-67
2023/05/21 05:41:54;;;;;;;24.23;18.20;;;15.40;17.40;;;;;;7389245;19;20398;-66
2023/05/21 05:44:24;;;;;;;23.25;18.05;;;15.20;18.50;;;;;;7366467;19;20015;-65
2023/05/21 05:46:54;;;;;;;22.98;17.92;;;15.20;18.20;;;;;;7363460;19;20021;-67
2023/05/21 05:49:24;;;;;;;23.70;18.17;;;15.30;18.50;;;;;;7364252;19;20007;-66
2023/05/21 05:51:53;;;;;;;24.80;19.48;;;15.60;17.00;;;;;;7366886;19;20014;-66
2023/05/21 05:54:23;;;;;;;26.23;18.10;;;15.50;16.40;;;;;;7367193;19;20368;-67
2023/05/21 05:56:56;;;;;;;22.63;17.08;;;15.40;16.80;;;;;;7388672;19;20007;-66
2023/05/21 05:59:26;;;;;;;27.67;19.25;;;15.40;17.60;;;;;;7365720;19;20006;-67
2023/05/21 06:01:56;;;;;;;24.60;18.10;;;15.60;15.80;;;;;;7366853;19;20622;-67
2023/05/21 06:04:28;;;;;;;22.50;16.85;;;15.60;16.30;;;;;;7366187;19;20086;-67
2023/05/21 06:06:59;;;;;;;25.20;18.55;;;15.70;15.40;;;;;;7364542;19;20014;-67
2023/05/21 06:09:29;;;;;;;23.20;17.27;;;15.80;14.20;;;;;;7364806;19;20017;-67
2023/05/21 06:12:01;;;;;;;19.95;17.42;;;15.80;14.00;;;;;;7397907;19;20042;-67
2023/05/21 06:14:31;;;;;;;23.80;17.08;;;16.00;13.60;;;;;;7380366;19;20051;-67
2023/05/21 06:17:01;;;;;;;22.92;16.63;;;16.00;12.00;;;;;;7379522;19;20018;-66
2023/05/21 06:19:31;;;;;;;21.13;17.98;;;16.10;11.90;;;;;;7368625;19;20023;-66
2023/05/21 06:22:01;;;;;;;23.00;17.75;;;16.00;12.70;;;;;;7367796;19;20432;-67
2023/05/21 06:24:31;;;;;;;23.17;17.00;;;16.50;9.80;;;;;;7366549;19;20122;-66
2023/05/21 06:27:04;;;;;;;20.13;16.15;;;17.00;2.70;;;;;;7376918;19;20081;-67
2023/05/21 06:29:34;;;;;;;21.10;16.38;;;17.20;1.40;;;;;;7384955;19;20018;-67
2023/05/21 06:32:04;;;;;;;25.83;18.55;;;17.20;1.00;;;;;;7364806;19;20074;-66
2023/05/21 06:34:34;;;;;;;20.48;16.30;;;17.20;1.10;;;;;;7366176;19;20023;-67
2023/05/21 06:37:05;;;;;;;22.20;16.50;;;17.30;1.00;;;;;;7364895;19;20017;-67
2023/05/21 06:39:34;;;;;;;21.58;16.17;;;17.20;1.00;;;;;;7362586;19;20340;-67
2023/05/21 06:42:07;;;;;;;25.00;16.75;;;17.00;1.00;;;;;;7366067;19;20051;-67
2023/05/21 06:44:37;;;;;;;20.73;15.38;;;17.00;1.20;;;;;;7387085;19;20006;-66
2023/05/21 06:47:07;;;;;;;21.20;16.35;;;17.40;1.00;;;;;;7363419;19;20006;-67
2023/05/21 06:49:37;;;;;;;22.38;16.30;;;17.20;1.00;;;;;;7362083;19;20163;-66
2023/05/21 06:52:08;;;;;;;19.25;15.95;;;17.50;1.00;;;;;;7364275;19;20006;-67
2023/05/21 06:54:38;;;;;;;20.23;15.05;;;17.80;1.00;;;;;;7365443;19;20054;-67
2023/05/21 06:57:10;;;;;;;17.30;15.00;;;17.40;1.00;;;;;;7367394;19;20527;-67
2023/05/21 06:59:40;;;;;;;19.00;15.38;;;18.00;1.00;;;;;;7389399;19;20021;-67
2023/05/21 07:02:10;;;;;;;17.60;13.98;;;17.90;1.00;;;;;;7372453;19;20014;-67
2023/05/21 07:04:40;;;;;;;20.70;15.73;;;18.00;1.00;;;;;;7371398;19;20010;-67
2023/05/21 07:07:10;;;;;;;17.05;14.00;;;18.00;1.00;;;;;;7372021;19;20014;-67
2023/05/21 07:09:40;;;;;;;19.08;14.30;;;17.90;1.00;;;;;;7368560;19;20019;-67
2023/05/21 07:12:12;;;;;;;18.55;15.52;;;18.40;1.00;;;;;;7372401;19;20018;-66
2023/05/21 07:14:42;;;;;;;18.20;14.50;;;18.70;1.00;;;;;;7393015;19;20010;-66
2023/05/21 07:17:12;;;;;;;19.13;15.18;;;18.50;1.00;;;;;;7371715;19;20014;-67
2023/05/21 07:19:42;;;;;;;18.75;13.45;;;18.20;1.00;;;;;;7366316;19;20082;-67
2023/05/21 07:22:12;;;;;;;18.98;14.93;;;18.50;1.00;;;;;;7373092;19;20011;-67
2023/05/21 07:24:42;;;;;;;18.40;13.57;;;18.70;1.00;;;;;;7369591;19;20018;-67
2023/05/21 07:27:14;;;;;;;15.70;13.90;;;18.90;1.00;;;;;;7371166;19;20565;-67
2023/05/21 07:29:54;;;;;;;18.25;13.95;;;18.70;1.00;;;;;;7389431;19;20098;-67
2023/05/21 07:32:25;;;;;;;17.15;12.52;;;19.00;1.00;;;;;;7371895;19;20003;-67
2023/05/21 07:34:55;;;;;;;14.70;12.40;;;18.80;1.00;;;;;;7370648;19;20031;-67
2023/05/21 07:37:26;;;;;;;15.70;13.23;;;18.50;1.00;;;;;;7370972;19;20442;-67
2023/05/21 07:39:57;;;;;;;14.13;12.35;;;18.60;1.00;;;;;;7365749;19;20014;-67
2023/05/21 07:42:29;;;;;;;12.60;11.05;;;18.90;1.00;;;;;;7370887;19;20014;-67
2023/05/21 07:44:59;;;;;;;16.67;12.30;;;19.20;1.00;;;;;;7392403;19;20026;-67
2023/05/21 07:47:29;;;;;;;13.45;11.38;;;19.00;1.00;;;;;;7370066;19;20569;-67
2023/05/21 07:50:00;;;;;;;16.80;12.48;;;18.90;1.00;;;;;;7366732;19;20516;-67
2023/05/21 07:52:30;;;;;;;14.20;11.23;;;19.20;1.00;;;;;;7369865;19;20036;-67
2023/05/21 07:55:00;;;;;;;13.38;11.65;;;19.50;1.00;;;;;;7370529;19;20014;-67
2023/05/21 07:57:34;;;;;;;14.65;11.90;;;19.70;1.00;;;;;;7368016;19;20018;-67
2023/05/21 08:00:06;;;;;;;16.33;11.50;;;19.80;1.00;;;;;;7369639;19;20010;-68
2023/05/21 08:02:36;;;;;;;16.25;10.68;;;20.00;1.00;;;;;;7391061;19;20021;-67
2023/05/21 08:05:07;;;;;;;15.82;10.48;;;20.00;1.00;;;;;;7369376;19;20019;-67
2023/05/21 08:07:37;;;;;;;13.32;11.13;;;20.00;1.00;;;;;;7369271;19;20021;-67
2023/05/21 08:10:09;;;;;;;13.18;10.98;;;19.90;1.00;;;;;;7368572;19;20440;-67
2023/05/21 08:12:41;;;;;;;14.88;10.60;;;20.00;1.00;;;;;;7369177;19;20015;-67
2023/05/21 08:15:12;;;;;;;11.60;10.18;;;20.10;1.00;;;;;;7371413;19;20478;-68
2023/05/21 08:17:42;;;;;;;15.10;10.80;;;20.40;1.00;;;;;;7395021;19;20010;-67
2023/05/21 08:20:13;;;;;;;14.40;11.10;;;20.30;1.00;;;;;;7368412;19;20539;-67
2023/05/21 08:22:44;;;;;;;14.73;10.57;;;20.00;1.00;;;;;;7368860;19;20002;-66
2023/05/21 08:25:14;;;;;;;14.95;11.60;;;19.80;1.00;;;;;;7368475;19;20086;-67
2023/05/21 08:27:47;;;;;;;13.15;10.93;;;20.10;1.00;;;;;;7367520;19;20143;-68
2023/05/21 08:30:21;;;;;;;12.80;11.45;;;19.80;1.00;;;;;;7365589;19;20031;-68
2023/05/21 08:32:51;;;;;;;12.35;10.30;;;20.10;1.00;;;;;;7390104;19;20039;-67
2023/05/21 08:35:21;;;;;;;12.23;9.77;;;20.30;1.00;;;;;;7367883;19;20022;-68
2023/05/21 08:37:51;;;;;;;16.08;10.95;;;20.70;1.00;;;;;;7368011;19;20007;-67
2023/05/21 08:40:21;;;;;;;13.32;9.50;;;20.90;1.00;;;;;;7366746;19;20043;-67
2023/05/21 08:42:53;;;;;;;10.90;9.57;;;20.90;1.00;;;;;;7368621;19;20024;-68
2023/05/21 08:45:25;;;;;;;10.15;9.15;;;20.70;1.00;;;;;;7368307;19;20019;-68
2023/05/21 08:47:57;;;;;;;11.15;9.07;;;20.70;1.00;;;;;;7391123;19;20029;-68
2023/05/21 08:50:28;;;;;;;10.30;8.80;;;20.70;1.00;;;;;;7365500;19;20014;-67
2023/05/21 08:53:00;;;;;;;11.15;9.05;;;20.60;1.00;;;;;;7367487;19;20010;-67
2023/05/21 08:55:41;;;;;;;12.63;9.93;;;21.10;1.00;;;;;;7367387;19;20629;-68
2023/05/21 08:58:16;;;;;;;13.10;9.15;;;21.20;1.00;;;;;;7367629;19;20458;-68
2023/05/21 09:00:46;;;;;;;11.43;8.77;;;21.30;1.00;;;;;;7364523;19;20011;-68
2023/05/21 09:03:17;;;;;;;12.30;9.18;;;21.20;1.00;;;;;;7368497;19;20010;-68
2023/05/21 09:05:47;;;;;;;10.13;8.95;;;21.80;1.00;;;;;;7388557;19;20017;-68
2023/05/21 09:08:21;;;;;;;12.23;9.88;;;22.10;1.00;;;;;;7366972;19;20006;-68
2023/05/21 09:10:52;;;;;;;15.38;10.00;;;21.90;1.00;;;;;;7366515;19;20002;-66
2023/05/21 09:13:28;;;;;;;13.15;10.05;;;21.40;1.00;;;;;;7366357;19;20026;-66
2023/05/21 09:15:58;;;;;;;11.27;9.50;;;21.10;1.00;;;;;;7366916;19;20089;-68
2023/05/21 09:18:28;;;;;;;12.70;8.88;;;21.40;1.00;;;;;;7366518;19;20036;-68
2023/05/21 09:20:58;;;;;;;12.98;9.95;;;21.90;1.00;;;;;;7385030;19;20062;-66
2023/05/21 09:23:30;;;;;;;13.07;10.15;;;21.80;1.00;;;;;;7365771;19;20081;-67
2023/05/21 09:26:02;;;;;;;11.73;9.20;;;21.60;1.00;;;;;;7366136;19;20027;-68
2023/05/21 09:28:37;;;;;;;10.48;8.85;;;21.30;1.00;;;;;;7366565;19;20034;-67
2023/05/21 09:31:07;;;;;;;13.15;8.95;;;21.40;1.00;;;;;;7365789;19;20006;-68
2023/05/21 09:33:37;;;;;;;11.40;9.32;;;21.20;1.00;;;;;;7364434;19;20022;-68
2023/05/21 09:36:10;;;;;;;11.88;8.57;;;21.50;1.00;;;;;;7383342;19;20020;-68
2023/05/21 09:38:40;;;;;;;10.25;8.55;;;21.70;1.00;;;;;;7387860;19;20014;-68
2023/05/21 09:41:10;;;;;;;12.43;8.10;;;21.70;1.00;;;;;;7366100;19;20010;-67
2023/05/21 09:43:43;;;;;;;10.30;8.52;;;21.40;1.00;;;;;;7366346;19;20031;-68
2023/05/21 09:46:14;;;;;;;11.05;8.82;;;21.30;1.00;;;;;;7366016;19;20023;-67
2023/05/21 09:48:45;;;;;;;9.27;7.70;;;21.50;1.00;;;;;;7365140;19;20073;-67
2023/05/21 09:51:16;;;;;;;11.05;8.10;;;21.70;1.00;;;;;;7364721;19;20047;-68
2023/05/21 09:53:50;;;;;;;11.20;9.18;;;21.50;1.00;;;;;;7388337;19;20023;-68
2023/05/21 09:56:25;;;;;;;9.52;8.52;;;21.90;1.00;;;;;;7365571;19;20015;-68
2023/05/21 09:59:00;;;;;;;13.13;8.50;;;22.00;1.00;;;;;;7363738;19;20039;-67
2023/05/21 10:01:33;;;;;;;10.40;8.52;;;22.20;1.00;;;;;;7365041;19;20681;-67
2023/05/21 10:04:07;;;;;;;11.75;8.35;;;22.30;1.00;;;;;;7365721;19;20011;-67
2023/05/21 10:06:43;;;;;;;9.80;7.75;;;22.50;1.00;;;;;;7363984;19;20479;-67
2023/05/21 10:09:16;;;;;;;10.02;8.13;;;22.40;1.00;;;;;;7363430;19;20031;-67
2023/05/21 10:11:46;;;;;;;10.65;8.15;;;22.80;1.00;;;;;;7386551;19;20006;-68
2023/05/21 10:14:22;;;;;;;8.93;7.53;;;23.20;1.00;;;;;;7364665;19;20038;-68
2023/05/21 10:16:55;;;;;;;10.40;7.40;;;23.20;1.00;;;;;;7365219;19;20031;-67
2023/05/21 10:19:26;;;;;;;9.70;7.97;;;23.20;1.00;;;;;;7363707;19;20014;-67
2023/05/21 10:21:56;;;;;;;10.18;7.82;;;23.50;1.00;;;;;;7365202;19;20014;-67
2023/05/21 10:24:26;;;;;;;9.90;7.72;;;23.50;1.00;;;;;;7364780;19;20014;-67
2023/05/21 10:26:57;;;;;;;9.27;7.18;;;23.40;1.00;;;;;;7386469;19;20014;-67
2023/05/21 10:29:32;;;;;;;7.97;7.18;;;23.40;1.00;;;;;;7361955;19;20014;-66
2023/05/21 10:32:04;;;;;;;9.38;7.40;;;23.60;1.00;;;;;;7371446;19;20006;-67
2023/05/21 10:34:35;;;;;;;8.48;6.90;;;24.30;1.00;;;;;;7370998;19;20010;-68
2023/05/21 10:37:09;;;;;;;8.52;6.65;;;24.20;1.00;;;;;;7372827;19;20090;-67
2023/05/21 10:39:40;;;;;;;;;;;23.80;1.00;;;;;;7371075;19;20018;-67
2023/05/21 10:42:39;;;;;;;7.63;6.82;;;23.60;1.00;;;;;;7373265;19;19943;-68
2023/05/21 10:45:25;;;;;;;7.88;6.85;;;23.70;1.00;;;;;;7373829;19;20332;-66
2023/05/21 10:48:25;;;;;;;9.75;6.90;;;23.70;1.00;;;;;;7393971;19;20018;-66
2023/05/21 10:51:11;;;;;;;9.70;7.28;;;23.40;1.00;;;;;;7369833;19;20011;-67
2023/05/21 10:54:05;;;;;;;7.45;6.75;;;23.90;1.00;;;;;;7371801;19;20039;-66
2023/05/21 10:56:41;;;;;;;9.48;6.93;;;23.80;1.00;;;;;;7371475;19;20087;-67
2023/05/21 10:59:20;;;;;;;8.32;6.32;;;24.10;1.00;;;;;;7369604;19;20015;-67
2023/05/21 11:01:55;;;;;;;8.05;6.38;;;24.10;1.00;;;;;;7370625;19;20002;-67
2023/05/21 11:04:28;;;;;;;7.75;6.97;;;24.60;1.00;;;;;;7370049;19;20375;-67
2023/05/21 11:07:00;;;;;;;8.52;6.38;;;24.50;1.00;;;;;;7369271;19;20094;-66
2023/05/21 11:09:30;;;;;;;9.80;7.05;;;24.40;1.00;;;;;;7369039;19;20042;-66
2023/05/21 11:12:03;;;;;;;9.02;6.60;;;24.50;1.00;;;;;;7391586;19;20092;-67
2023/05/21 11:14:37;;;;;;;8.20;6.63;;;24.30;1.00;;;;;;7371363;19;20011;-67
2023/05/21 11:17:17;;;;;;;7.47;5.88;;;24.20;1.00;;;;;;7369893;19;20555;-67
2023/05/21 11:19:50;;;;;;;7.45;6.72;;;24.20;1.00;;;;;;7368468;19;20037;-68
2023/05/21 11:22:24;;;;;;;7.53;6.72;;;24.70;1.00;;;;;;7371395;19;20011;-67
2023/05/21 11:24:55;;;;;;;8.27;7.05;;;24.20;1.00;;;;;;7370292;19;20007;-67
2023/05/21 11:27:36;;;;;;;7.53;6.53;;;24.20;1.00;;;;;;7368378;19;20082;-67
2023/05/21 11:30:08;;;;;;;7.22;6.45;;;24.20;1.00;;;;;;7389674;19;20781;-67
2023/05/21 11:33:19;;;;;;;7.75;5.80;;;24.40;1.00;;;;;;7371142;19;19999;-67
2023/05/21 11:36:00;;;;;;;7.43;6.47;;;24.30;1.00;;;;;;7371344;19;20038;-67
2023/05/21 11:38:32;;;;;;;8.85;6.57;;;24.30;1.00;;;;;;7367045;19;20044;-67
2023/05/21 11:41:05;;;;;;;7.72;6.50;;;24.50;1.00;;;;;;7369485;19;20482;-67
2023/05/21 11:43:34;;;;;;;8.27;6.40;;;24.80;1.00;;;;;;7367083;19;20007;-66
2023/05/21 11:46:05;;;;;;;7.88;6.63;;;24.50;1.00;;;;;;7371322;19;20068;-68
2023/05/21 11:48:39;;;;;;;9.40;6.40;;;24.60;1.00;;;;;;7367642;19;20022;-67
2023/05/21 11:51:09;;;;;;;7.97;6.18;;;24.50;1.00;;;;;;7368285;19;20463;-68
2023/05/21 11:53:41;;;;;;;11.02;6.25;;;24.40;1.00;;;;;;7391634;19;20039;-67
2023/05/21 11:56:14;;;;;;;6.72;6.05;;;24.40;1.00;;;;;;7367518;19;20159;-66
2023/05/21 11:58:44;;;;;;;9.35;7.07;;;24.50;1.00;;;;;;7366831;19;20022;-68
2023/05/21 12:01:23;;;;;;;7.05;6.35;;;24.50;1.00;;;;;;7369277;19;20086;-69
2023/05/21 12:03:56;;;;;;;8.82;6.38;;;24.70;1.00;;;;;;7368216;19;20774;-68
2023/05/21 12:06:30;;;;;;;7.00;6.30;;;24.70;1.00;;;;;;7370032;19;20022;-69
2023/05/21 12:09:00;;;;;;;;;;;24.20;1.00;;;;;;7390636;19;20011;-69
2023/05/21 12:11:30;;;;;;;9.27;6.40;;;24.20;1.00;;;;;;7367023;19;19918;-69
2023/05/21 12:14:00;;;;;;;7.28;6.20;;;24.70;1.00;;;;;;7369100;19;20049;-69
2023/05/21 12:16:31;;;;;;;11.70;6.78;;;24.80;1.00;;;;;;7368881;19;20003;-69
2023/05/21 12:19:04;;;;;;;8.43;6.35;;;24.90;1.00;;;;;;7366557;19;20506;-69
2023/05/21 12:21:34;;;;;;;6.80;5.65;;;25.10;1.00;;;;;;7366886;19;20768;-69
2023/05/21 12:24:05;;;;;;;8.45;6.55;;;24.90;1.00;;;;;;7390677;19;20112;-68
2023/05/21 12:26:35;;;;;;;8.32;6.35;;;25.20;1.00;;;;;;7367332;19;20019;-68
2023/05/21 12:29:07;;;;;;;6.95;5.82;;;25.30;1.00;;;;;;7365686;19;20044;-69
2023/05/21 12:31:49;;;;;;;10.63;6.43;;;25.10;1.00;;;;;;7366938;19;20093;-68
2023/05/21 12:34:41;;;;;;;6.95;5.75;;;24.80;1.00;;;;;;7368966;19;20017;-68
2023/05/21 12:37:13;;;;;;;6.43;5.80;;;25.00;1.00;;;;;;7368446;19;20022;-69
2023/05/21 12:39:45;;;;;;;6.82;5.97;;;25.30;1.00;;;;;;7364481;19;20014;-68
2023/05/21 12:42:16;;;;;;;8.57;6.43;;;24.90;1.00;;;;;;7369980;19;20010;-69
2023/05/21 12:44:47;;;;;;;7.00;6.03;;;24.90;1.00;;;;;;7390816;19;20029;-69
2023/05/21 12:47:18;;;;;;;7.50;6.10;;;24.90;1.00;;;;;;7367319;19;20523;-69
2023/05/21 12:49:50;;;;;;;7.28;6.30;;;24.90;1.00;;;;;;7359193;19;20374;-69
2023/05/21 12:52:24;;;;;;;7.57;5.65;;;24.80;1.00;;;;;;7367866;19;20021;-68
2023/05/21 12:54:55;;;;;;;6.85;6.15;;;24.90;1.00;;;;;;7363189;19;20329;-68
2023/05/21 12:57:27;;;;;;;8.45;6.53;;;25.10;1.00;;;;;;7363510;19;20015;-68
2023/05/21 12:59:58;;;;;;;7.00;6.00;;;24.80;1.00;;;;;;7385940;19;20095;-69
2023/05/21 13:02:29;;;;;;;6.65;6.00;;;24.40;1.00;;;;;;7363629;19;20014;-69